Time;durP1;ratioP1;P1;durP2;ratioP2;P2;SDS_P1;SDS_P2;PMS_P1;PMS_P2;Temp;Humidity;BMP_temperature;BMP_pressure;BME280_temperature;BME280_humidity;BME280_pressure;Samples;Min_cycle;Max_cycle;Signal;HPM_P1;HPM_P2
2022/12/01 06:48:59;;;;;;;24.13;21.63;;;;;;;10.59;67.41;102141.34;4961757;28;102388;-55
2022/12/01 06:51:26;;;;;;;14.02;12.55;;;;;;;10.57;67.93;102146.22;4956760;28;102448;-55
2022/12/01 06:53:53;;;;;;;16.08;11.98;;;;;;;10.58;67.40;102150.56;4967983;28;104298;-54
2022/12/01 06:56:20;;;;;;;15.45;11.05;;;;;;;10.59;67.64;102150.31;4965669;28;102882;-54
2022/12/01 06:58:48;;;;;;;13.45;11.75;;;;;;;10.61;67.26;102157.44;4962300;28;102254;-55
2022/12/01 07:01:15;;;;;;;12.32;10.60;;;;;;;10.60;67.58;102156.59;4965510;28;102893;-55
2022/12/01 07:03:42;;;;;;;16.17;11.85;;;;;;;10.60;67.59;102156.59;4954492;28;104017;-55
2022/12/01 07:06:10;;;;;;;13.23;11.57;;;;;;;10.63;67.87;102161.56;4959567;28;102480;-55
2022/12/01 07:08:37;;;;;;;13.52;12.13;;;;;;;10.64;67.95;102160.53;4966221;28;102038;-55
2022/12/01 07:11:06;;;;;;;14.23;12.68;;;;;;;10.64;68.05;102167.84;4967802;28;102179;-55
2022/12/01 07:13:33;;;;;;;13.68;12.32;;;;;;;10.63;67.99;102172.47;4957420;28;103858;-55
2022/12/01 07:16:00;;;;;;;12.00;11.00;;;;;;;10.63;67.85;102171.63;4961875;28;102401;-55
2022/12/01 07:18:26;;;;;;;14.90;13.52;;;;;;;10.62;67.86;102165.38;4963872;28;102487;-55
2022/12/01 07:20:53;;;;;;;15.55;13.82;;;;;;;10.63;67.62;102164.28;4971125;28;102194;-55
2022/12/01 07:23:21;;;;;;;13.70;12.55;;;;;;;10.64;67.65;102165.13;4957633;28;104303;-55
2022/12/01 07:25:47;;;;;;;15.45;13.88;;;;;;;10.62;67.95;102159.09;4962961;28;102241;-55
2022/12/01 07:28:14;;;;;;;16.27;14.70;;;;;;;10.62;67.79;102154.47;4954857;28;102261;-55
2022/12/01 07:30:40;;;;;;;15.65;14.48;;;;;;;10.63;67.77;102161.56;4963659;28;102639;-55
2022/12/01 07:33:07;;;;;;;16.75;15.45;;;;;;;10.62;68.00;102149.03;4959292;28;103902;-55
2022/12/01 07:35:33;;;;;;;17.05;15.57;;;;;;;10.63;67.74;102149.84;4961190;28;102480;-55
2022/12/01 07:38:00;;;;;;;17.50;16.15;;;;;;;10.63;67.59;102155.31;4955330;28;102651;-55
2022/12/01 07:40:28;;;;;;;17.77;16.27;;;;;;;10.62;67.70;102159.94;4967549;28;102153;-54
2022/12/01 07:42:54;;;;;;;17.13;15.63;;;;;;;10.61;67.74;102163.72;4962486;28;104259;-55
2022/12/01 07:45:21;;;;;;;18.02;16.52;;;;;;;10.62;68.10;102154.47;4960032;28;105860;-55
2022/12/01 07:47:51;;;;;;;19.35;17.83;;;;;;;10.62;67.95;102164.53;4960282;28;102396;-56
2022/12/01 07:50:18;;;;;;;18.60;17.33;;;;;;;10.62;67.82;102165.38;4950466;28;102184;-55
2022/12/01 07:52:48;;;;;;;18.60;16.98;;;;;;;10.62;68.05;102168.09;4942202;28;104168;-55
2022/12/01 07:55:15;;;;;;;19.48;17.98;;;;;;;10.63;67.98;102171.63;4941253;28;102339;-55
2022/12/01 07:57:42;;;;;;;18.17;16.73;;;;;;;10.62;68.04;102181.69;4948274;28;102656;-54
2022/12/01 08:00:10;;;;;;;19.08;17.60;;;;;;;10.61;67.62;102182.78;4950123;28;102251;-55
2022/12/01 08:02:37;;;;;;;19.42;18.00;;;;;;;10.61;67.84;102173.78;4943790;28;104080;-55
2022/12/01 08:05:04;;;;;;;19.20;17.65;;;;;;;10.62;67.89;102181.69;4941031;28;102635;-55
2022/12/01 08:07:30;;;;;;;20.23;18.63;;;;;;;10.63;67.95;102186.06;4946863;28;102276;-55
2022/12/01 08:09:57;;;;;;;20.67;18.95;;;;;;;10.65;67.57;102192.13;4944949;28;102155;-55
2022/12/01 08:12:24;;;;;;;20.27;18.70;;;;;;;10.63;67.74;102188.81;4943763;28;104483;-55
2022/12/01 08:14:52;;;;;;;20.10;18.40;;;;;;;10.63;67.98;102188.81;4947007;28;102048;-55
2022/12/01 08:17:19;;;;;;;19.70;18.15;;;;;;;10.66;67.86;102188.34;4950238;28;102582;-55
2022/12/01 08:19:45;;;;;;;22.23;20.60;;;;;;;10.63;68.05;102183.34;4947795;28;102266;-55
2022/12/01 08:22:12;;;;;;;22.15;20.42;;;;;;;10.62;67.82;102181.69;4940987;28;104081;-55
2022/12/01 08:24:38;;;;;;;21.58;19.55;;;;;;;10.64;67.63;102184.19;4945896;28;102384;-55
2022/12/01 08:27:05;;;;;;;20.92;19.35;;;;;;;10.64;67.85;102182.31;4949873;28;102226;-55
2022/12/01 08:29:34;;;;;;;22.40;20.80;;;;;;;10.64;67.64;102173.28;4945907;28;103130;-55
2022/12/01 08:32:02;;;;;;;22.38;20.95;;;;;;;10.65;67.78;102180.41;4942951;28;104110;-55
2022/12/01 08:47:12;;;;;;;76.70;72.38;;;;;;;10.64;68.12;102165.97;5033410;27;102921;-55
2022/12/01 08:49:40;;;;;;;82.68;78.07;;;;;;;10.65;68.16;102170.34;5011907;27;102574;-55
2022/12/01 08:52:06;;;;;;;55.08;51.65;;;;;;;10.64;68.19;102160.53;5013298;27;104763;-55
2022/12/01 08:54:33;;;;;;;47.60;44.83;;;;;;;10.64;68.03;102165.97;5013520;27;102952;-55
2022/12/01 08:56:59;;;;;;;40.33;37.92;;;;;;;10.63;67.71;102164.28;5013643;27;102911;-55
2022/12/01 08:59:26;;;;;;;37.33;35.10;;;;;;;10.64;67.44;102170.56;5016417;28;103075;-54
2022/12/01 09:01:53;;;;;;;36.83;34.50;;;;;;;10.63;67.87;102164.28;5015543;27;104023;-55
2022/12/01 09:04:23;;;;;;;34.80;32.53;;;;;;;10.62;67.62;102164.53;5012589;27;102086;-54
2022/12/01 09:06:53;;;;;;;33.58;31.48;;;;;;;10.62;67.81;102159.94;5010961;27;102419;-55
2022/12/01 09:09:23;;;;;;;30.85;28.83;;;;;;;10.64;68.27;102155.09;5014908;27;102369;-55
2022/12/01 09:11:51;;;;;;;30.52;28.50;;;;;;;10.65;68.12;102159.47;5012486;27;103845;-55
2022/12/01 09:14:19;;;;;;;32.67;30.45;;;;;;;10.64;67.28;102163.25;5013843;27;102503;-55
2022/12/01 09:16:48;;;;;;;31.67;29.42;;;;;;;10.65;67.81;102156.72;5011837;27;102478;-55
2022/12/01 09:19:17;;;;;;;29.30;27.42;;;;;;;10.67;67.43;102157.31;5010599;27;102344;-55
2022/12/01 09:21:46;;;;;;;31.80;29.65;;;;;;;10.70;67.98;102159.56;5013331;27;104180;-55
2022/12/01 09:24:14;;;;;;;28.80;26.83;;;;;;;10.68;67.43;102159.00;5011461;27;102622;-55
2022/12/01 09:26:41;;;;;;;29.13;26.85;;;;;;;10.68;67.41;102156.25;5014004;27;102750;-55
2022/12/01 09:29:09;;;;;;;28.20;26.42;;;;;;;10.67;67.74;102151.03;5012712;27;103588;-55
2022/12/01 09:31:36;;;;;;;27.83;25.83;;;;;;;10.64;67.57;102155.09;5012704;27;103965;-55
2022/12/01 09:34:05;;;;;;;31.17;29.13;;;;;;;10.64;67.64;102154.22;5012438;27;102137;-55
2022/12/01 09:36:33;;;;;;;26.88;24.90;;;;;;;10.66;67.62;102143.94;5009960;28;102504;-55
2022/12/01 09:39:02;;;;;;;28.63;26.57;;;;;;;10.65;67.54;102140.41;5015617;27;102113;-55
2022/12/01 09:41:32;;;;;;;28.23;26.40;;;;;;;10.63;67.38;102134.34;5013334;27;104144;-55
2022/12/01 09:44:12;;;;;;;28.38;26.45;;;;;;;10.64;67.91;102133.31;5011781;27;102636;-56
2022/12/01 09:46:43;;;;;;;24.80;23.08;;;;;;;10.63;67.62;102120.72;5005429;27;102769;-55
2022/12/01 09:49:16;;;;;;;27.08;25.35;;;;;;;10.62;67.79;102121.81;4999548;28;102271;-55
2022/12/01 09:51:42;;;;;;;26.25;24.33;;;;;;;10.62;67.40;102124.53;4997566;28;104523;-55
2022/12/01 09:54:12;;;;;;;25.88;24.23;;;;;;;10.62;67.96;102119.09;4996261;28;102810;-55
2022/12/01 09:56:43;;;;;;;26.65;24.83;;;;;;;10.61;67.71;102114.72;4995800;27;102735;-55
2022/12/01 09:59:17;;;;;;;26.48;24.65;;;;;;;10.63;67.58;102112.56;4996529;28;102701;-54
2022/12/01 10:01:47;;;;;;;25.80;23.88;;;;;;;10.62;67.71;102116.38;4997204;28;104002;-55
2022/12/01 10:04:17;;;;;;;25.52;23.83;;;;;;;10.62;67.60;102110.09;4997967;28;103162;-55
2022/12/01 10:06:50;;;;;;;27.02;25.17;;;;;;;10.61;67.98;102114.72;4997036;28;102352;-55
2022/12/01 10:09:23;;;;;;;24.63;22.95;;;;;;;10.63;67.75;102112.56;5000252;28;102799;-55
2022/12/01 10:11:53;;;;;;;25.48;23.63;;;;;;;10.63;67.84;102115.28;5003732;27;109088;-56
2022/12/01 10:14:21;;;;;;;25.92;24.27;;;;;;;10.61;67.62;102114.72;5007524;28;102428;-55
2022/12/01 10:16:57;;;;;;;27.08;25.00;;;;;;;10.59;67.33;102117.66;5002114;28;102150;-55
2022/12/01 10:19:33;;;;;;;22.67;21.17;;;;;;;10.60;67.79;102107.59;5006844;28;102354;-55
2022/12/01 10:22:16;;;;;;;24.90;23.17;;;;;;;10.59;67.81;102112.22;5001885;27;103931;-55
2022/12/01 10:24:53;;;;;;;23.40;21.77;;;;;;;10.59;67.78;102109.50;5005230;28;102672;-55
2022/12/01 10:27:34;;;;;;;24.65;22.83;;;;;;;10.61;67.57;102114.72;5003420;27;101949;-55
2022/12/01 10:30:04;;;;;;;22.58;21.20;;;;;;;10.62;67.80;102105.47;5007669;28;102474;-55
2022/12/01 10:32:43;;;;;;;25.70;24.00;;;;;;;10.58;67.67;102104.31;5002296;27;104253;-55
2022/12/01 10:35:12;;;;;;;23.40;21.83;;;;;;;10.58;67.87;102110.56;5004946;28;102246;-55
2022/12/01 10:37:38;;;;;;;23.03;21.47;;;;;;;10.60;67.77;102107.59;5002718;27;102305;-55
2022/12/01 10:40:12;;;;;;;24.88;23.38;;;;;;;10.59;67.58;102106.78;5005665;28;102217;-55
2022/12/01 10:42:41;;;;;;;24.02;22.38;;;;;;;10.60;67.50;102107.59;5006625;28;105008;-55
2022/12/01 10:45:14;;;;;;;23.10;21.58;;;;;;;10.62;67.45;102102.75;4996312;28;102742;-55
2022/12/01 16:24:20;;;;;;;23.90;22.48;;;;;;;10.13;66.14;102069.47;5082762;27;102754;-55
2022/12/01 16:26:48;;;;;;;14.00;13.00;;;;;;;10.14;66.36;102071.13;5068499;27;102783;-55
2022/12/01 16:29:19;;;;;;;12.07;11.07;;;;;;;10.16;66.79;102079.03;5046614;27;103974;-55
2022/12/01 16:31:45;;;;;;;11.40;10.55;;;;;;;10.14;66.19;102081.19;5046121;27;102233;-55
2022/12/01 16:34:14;;;;;;;12.68;11.77;;;;;;;10.15;66.50;102072.78;5045010;27;102613;-55
2022/12/01 16:36:41;;;;;;;10.77;9.98;;;;;;;10.17;67.05;102075.25;5045895;27;102480;-55
2022/12/01 16:39:08;;;;;;;11.57;10.50;;;;;;;10.21;67.36;102076.47;5043600;27;103940;-55
2022/12/01 16:41:43;;;;;;;11.35;10.60;;;;;;;10.24;66.91;102067.81;5045063;27;102743;-55
2022/12/01 16:44:11;;;;;;;10.85;9.88;;;;;;;10.26;66.69;102061.09;5043270;27;102902;-55
2022/12/01 16:46:38;;;;;;;12.23;11.32;;;;;;;10.26;67.19;102063.81;5046779;27;102225;-54
2022/12/01 16:49:06;;;;;;;11.23;10.35;;;;;;;10.28;66.97;102056.28;5048768;27;103946;-55
2022/12/01 16:51:35;;;;;;;12.32;11.18;;;;;;;10.27;66.91;102053.75;5050351;27;101964;-54
2022/12/01 16:54:05;;;;;;;12.38;11.45;;;;;;;10.27;67.00;102049.16;5050407;27;102486;-55
2022/12/01 16:56:31;;;;;;;12.73;11.75;;;;;;;10.26;67.05;102052.94;5047755;27;102146;-55
2022/12/01 16:59:00;;;;;;;12.18;11.15;;;;;;;10.25;66.83;102051.28;5043762;27;104086;-55
2022/12/01 17:01:27;;;;;;;13.43;12.43;;;;;;;10.27;66.93;102051.88;5044263;27;102464;-56
2022/12/01 17:03:54;;;;;;;12.65;11.85;;;;;;;10.29;66.71;102063.34;5039209;27;102325;-55
2022/12/01 17:06:20;;;;;;;14.00;13.07;;;;;;;10.28;66.80;102061.72;5045366;27;102200;-55
2022/12/01 17:08:47;;;;;;;13.88;12.98;;;;;;;10.26;66.89;102061.09;5041541;27;104327;-55
2022/12/01 17:11:14;;;;;;;14.40;13.20;;;;;;;10.26;66.68;102052.94;5043809;27;102152;-55
2022/12/01 17:13:41;;;;;;;15.32;14.07;;;;;;;10.23;66.42;102058.81;5038859;27;102519;-55
2022/12/01 17:16:09;;;;;;;14.02;13.07;;;;;;;10.23;66.59;102061.53;5068105;27;102511;-55
2022/12/01 17:18:37;;;;;;;14.77;13.70;;;;;;;10.22;66.99;102057.16;5084847;27;104236;-55
2022/12/01 17:21:06;;;;;;;14.48;13.52;;;;;;;10.22;66.73;102062.63;5086214;27;102742;-55
2022/12/01 17:23:33;;;;;;;15.40;14.43;;;;;;;10.23;66.80;102058.81;5076364;27;102435;-55
2022/12/01 17:26:00;;;;;;;15.48;14.25;;;;;;;10.23;67.19;102058.81;5081437;27;102326;-55
2022/12/01 17:28:27;;;;;;;15.45;14.15;;;;;;;10.25;66.51;102066.75;5082637;27;103994;-55
2022/12/01 17:30:53;;;;;;;15.00;13.95;;;;;;;10.23;66.68;102066.97;5079822;27;102219;-55
2022/12/01 17:33:21;;;;;;;15.95;14.88;;;;;;;10.25;66.77;102064.03;5085683;27;102578;-55
2022/12/01 17:35:48;;;;;;;15.00;13.95;;;;;;;10.24;67.20;102068.66;5067950;27;102174;-55
2022/12/01 17:38:15;;;;;;;16.40;15.13;;;;;;;10.27;66.80;102076.34;5072699;27;104284;-55
2022/12/01 17:40:41;;;;;;;16.38;15.18;;;;;;;10.28;66.93;102072.59;5073623;27;102199;-55
2022/12/01 17:43:08;;;;;;;15.88;14.73;;;;;;;10.28;66.43;102071.78;5074109;27;102389;-55
2022/12/01 17:45:34;;;;;;;17.75;16.48;;;;;;;10.30;67.14;102075.88;5067451;27;106642;-55
2022/12/01 17:48:01;;;;;;;18.17;16.90;;;;;;;10.30;66.89;102075.88;5064750;27;104018;-55
2022/12/01 17:50:29;;;;;;;20.05;18.58;;;;;;;10.28;66.26;102077.22;5073214;27;102399;-55
2022/12/01 17:52:55;;;;;;;19.48;18.10;;;;;;;10.26;65.96;102074.72;5074238;27;102213;-55
2022/12/01 17:55:22;;;;;;;17.10;15.95;;;;;;;10.26;67.49;102068.44;5069121;27;102796;-54
2022/12/01 17:57:49;;;;;;;16.88;15.80;;;;;;;10.27;67.10;102065.47;5067654;27;103959;-55
2022/12/01 18:00:17;;;;;;;19.75;18.20;;;;;;;10.27;67.07;102065.47;5074063;27;102666;-55
2022/12/01 18:02:46;;;;;;;18.80;17.60;;;;;;;10.26;65.98;102063.00;5073043;27;102462;-55
2022/12/01 18:05:12;;;;;;;19.95;18.30;;;;;;;10.29;66.46;102068.78;5071544;27;102119;-55
2022/12/01 18:07:40;;;;;;;18.25;16.95;;;;;;;10.30;66.66;102065.00;5064953;27;104780;-54
2022/12/01 18:10:07;;;;;;;18.00;16.50;;;;;;;10.32;67.28;102073.78;5069142;27;102371;-55
2022/12/01 18:12:34;;;;;;;19.70;18.30;;;;;;;10.32;66.75;102068.34;5063524;27;102351;-55
2022/12/01 18:15:03;;;;;;;18.75;17.33;;;;;;;10.34;66.98;102076.25;5070676;27;102375;-55
2022/12/01 18:17:29;;;;;;;19.23;17.83;;;;;;;10.37;66.99;102066.78;5067898;27;103881;-55
2022/12/01 19:39:25;;;;;;;55.30;51.83;;;;;;;10.44;66.87;102065.59;5032390;27;1410248;-55
2022/12/01 19:41:52;;;;;;;27.35;25.40;;;;;;;10.43;66.66;102049.53;5039024;27;103588;-55
2022/12/01 19:44:18;;;;;;;22.05;20.48;;;;;;;10.45;66.77;102055.53;5011212;27;103947;-57
2022/12/01 19:46:45;;;;;;;17.90;16.60;;;;;;;10.46;66.89;102054.50;5011784;27;102367;-55
2022/12/01 19:49:12;;;;;;;17.90;16.77;;;;;;;10.46;67.06;102049.88;5010345;28;102809;-56
2022/12/01 19:51:39;;;;;;;17.38;16.15;;;;;;;10.47;66.53;102037.09;5014552;27;102544;-55
2022/12/01 19:54:11;;;;;;;17.33;16.05;;;;;;;10.48;66.73;102041.47;5014245;27;104015;-54
2022/12/01 19:56:39;;;;;;;18.10;16.92;;;;;;;10.48;66.72;102033.28;5016158;27;102799;-55
2022/12/01 19:59:06;;;;;;;18.02;16.83;;;;;;;10.49;66.67;102032.22;5011876;27;102531;-55
2022/12/01 20:01:33;;;;;;;18.02;16.73;;;;;;;10.50;66.76;102025.72;5012717;27;102384;-55
2022/12/01 20:04:00;;;;;;;18.05;16.77;;;;;;;10.51;66.70;102032.81;5016066;28;103982;-55
2022/12/01 20:06:28;;;;;;;19.35;18.00;;;;;;;10.52;66.41;102026.31;5015009;27;102477;-55
2022/12/01 20:08:57;;;;;;;20.87;19.37;;;;;;;10.54;67.00;102026.91;5014542;28;102905;-55
2022/12/01 20:11:24;;;;;;;19.73;17.92;;;;;;;10.53;67.13;102031.53;5012652;27;102234;-55
2022/12/01 20:13:52;;;;;;;20.88;19.33;;;;;;;10.54;66.82;102026.91;5010980;28;103822;-54
2022/12/01 20:16:20;;;;;;;19.38;18.17;;;;;;;10.54;66.45;102026.91;5010825;27;102667;-55
2022/12/01 20:18:47;;;;;;;19.55;18.30;;;;;;;10.56;66.89;102032.91;5015213;27;102542;-55
2022/12/01 20:21:17;;;;;;;21.55;20.13;;;;;;;10.55;66.88;102040.25;5012751;27;102519;-55
2022/12/01 20:23:45;;;;;;;21.75;20.20;;;;;;;10.57;66.90;102037.31;5012264;27;104793;-55
2022/12/01 20:26:13;;;;;;;22.00;20.60;;;;;;;10.57;66.63;102026.44;5011403;28;102342;-55
2022/12/01 20:28:44;;;;;;;21.02;19.63;;;;;;;10.55;66.92;102029.38;5018325;27;102995;-55
2022/12/01 20:31:14;;;;;;;21.38;19.60;;;;;;;10.56;66.67;102035.63;5032551;27;102175;-55
2022/12/01 20:33:42;;;;;;;20.75;19.25;;;;;;;10.57;67.08;102031.88;5027006;27;104250;-55
2022/12/01 20:36:09;;;;;;;22.40;21.02;;;;;;;10.57;67.07;102026.44;5021896;27;103161;-55
2022/12/01 20:38:36;;;;;;;24.20;22.60;;;;;;;10.58;66.50;102028.91;5029235;27;103108;-55
2022/12/01 20:41:03;;;;;;;22.45;21.02;;;;;;;10.58;67.03;102030.78;5017838;27;102305;-55
2022/12/01 20:43:29;;;;;;;21.70;20.35;;;;;;;10.59;66.59;102025.09;5018121;28;104100;-55
2022/12/01 20:45:56;;;;;;;24.90;23.30;;;;;;;10.61;67.10;102024.88;5020910;27;102010;-55
2022/12/01 20:48:24;;;;;;;22.75;21.33;;;;;;;10.63;66.87;102017.28;5020122;27;102807;-55
2022/12/01 20:50:50;;;;;;;24.98;23.27;;;;;;;10.62;66.54;102018.34;5019887;27;102759;-54
2022/12/01 20:53:17;;;;;;;24.98;23.42;;;;;;;10.65;66.42;102007.00;5017309;27;103919;-55
2022/12/01 20:55:44;;;;;;;24.45;22.85;;;;;;;10.61;66.73;102011.28;5023295;27;101884;-55
2022/12/01 20:58:12;;;;;;;24.77;23.20;;;;;;;10.62;66.57;102007.47;5019514;27;102048;-55
2022/12/01 21:00:43;;;;;;;24.38;22.92;;;;;;;10.61;67.14;102005.00;5021462;27;102326;-55
2022/12/01 21:03:09;;;;;;;23.35;21.83;;;;;;;10.61;67.27;102002.28;5003773;28;104078;-55
2022/12/01 21:05:40;;;;;;;23.00;21.50;;;;;;;10.60;66.71;102001.44;5003579;28;102233;-55
2022/12/01 21:08:08;;;;;;;22.13;20.58;;;;;;;10.62;66.67;102010.19;4999387;28;102902;-55
2022/12/01 21:10:36;;;;;;;23.98;22.48;;;;;;;10.61;66.56;102000.38;4997310;28;102697;-55
2022/12/01 21:16:01;;;;;;;24.10;22.38;;;;;;;10.59;67.23;101991.59;5016926;27;102283;-54
2022/12/01 21:18:37;;;;;;;22.85;21.23;;;;;;;10.61;67.17;102005.81;5016313;27;102067;-54
2022/12/01 21:21:20;;;;;;;24.08;22.42;;;;;;;10.61;66.40;102000.38;5017866;27;103295;-54
2022/12/01 21:23:59;;;;;;;23.63;22.05;;;;;;;10.62;66.74;101991.13;5018928;28;103906;-54
2022/12/01 21:26:25;;;;;;;23.00;21.52;;;;;;;10.62;67.03;101996.56;5018387;27;101972;-54
2022/12/01 21:28:53;;;;;;;25.58;23.92;;;;;;;10.62;66.94;101991.13;5015770;27;102627;-54
2022/12/01 21:31:20;;;;;;;23.48;21.90;;;;;;;10.60;66.41;101987.81;5022596;27;102100;-54
2022/12/01 21:33:47;;;;;;;24.98;23.38;;;;;;;10.62;66.48;101991.13;5029026;27;103905;-54
2022/12/01 21:36:18;;;;;;;23.95;22.25;;;;;;;10.61;66.75;101986.75;5024779;27;102120;-54
2022/12/01 21:38:49;;;;;;;24.00;22.38;;;;;;;10.61;66.72;101992.22;5021023;27;102505;-54
2022/12/01 21:41:19;;;;;;;24.70;23.17;;;;;;;10.62;66.59;101996.56;5018434;27;103825;-54
2022/12/01 21:43:46;;;;;;;25.83;24.10;;;;;;;10.62;66.43;101984.88;5020576;27;104023;-54
2022/12/01 21:46:15;;;;;;;27.58;25.77;;;;;;;10.61;66.50;101988.66;5025180;28;102521;-54
2022/12/01 21:48:42;;;;;;;24.77;23.25;;;;;;;10.63;66.71;101991.97;5015535;27;103278;-54
2022/12/01 21:51:15;;;;;;;25.40;23.90;;;;;;;10.62;66.55;101985.69;5031019;27;103280;-54
2022/12/01 21:53:43;;;;;;;24.33;22.70;;;;;;;10.62;66.51;101980.25;5021503;27;104302;-54
2022/12/01 21:56:18;;;;;;;23.75;22.15;;;;;;;10.64;67.03;101989.00;5032386;27;102733;-54
2022/12/01 21:58:45;;;;;;;22.02;20.63;;;;;;;10.63;66.32;101979.16;5025272;27;102244;-54
2022/12/01 22:01:18;;;;;;;23.80;22.23;;;;;;;10.63;66.94;101968.28;5027886;27;102362;-54
2022/12/01 22:03:46;;;;;;;24.67;22.92;;;;;;;10.64;67.08;101971.81;5028500;27;103934;-54
2022/12/01 22:06:20;;;;;;;22.67;21.17;;;;;;;10.63;66.55;101967.44;5027202;27;102331;-54
2022/12/01 22:08:54;;;;;;;22.58;21.17;;;;;;;10.63;66.77;101970.19;5023409;27;102472;-54
2022/12/01 22:11:22;;;;;;;23.85;22.25;;;;;;;10.63;66.92;101968.28;5031209;27;102520;-54
2022/12/01 22:13:53;;;;;;;24.88;23.25;;;;;;;10.62;67.28;101963.91;5023845;27;103826;-54
2022/12/01 22:16:24;;;;;;;23.10;21.45;;;;;;;10.63;67.02;101962.84;5021863;28;102246;-53
2022/12/01 22:18:52;;;;;;;22.90;21.40;;;;;;;10.63;66.55;101962.84;5008154;28;102139;-54
2022/12/01 22:21:31;;;;;;;21.10;19.77;;;;;;;10.63;66.68;101965.56;5012611;28;102476;-54
2022/12/01 22:24:20;;;;;;;20.52;19.00;;;;;;;10.63;67.26;101960.13;4992405;28;104125;-54
2022/12/01 22:26:48;;;;;;;19.58;18.13;;;;;;;10.61;66.74;101956.81;5006601;28;102333;-54
2022/12/01 22:29:27;;;;;;;21.83;20.33;;;;;;;10.60;66.76;101976.91;5001884;28;102368;-54
2022/12/01 22:32:23;;;;;;;21.15;19.60;;;;;;;10.60;67.14;101976.91;5015570;28;102399;-54
2022/12/01 22:34:52;;;;;;;19.55;18.20;;;;;;;10.62;66.98;101977.53;5029537;27;103932;-54
2022/12/01 22:37:20;;;;;;;22.13;20.65;;;;;;;10.63;67.03;101981.88;5021384;27;102605;-55
2022/12/01 22:39:50;;;;;;;20.20;18.83;;;;;;;10.62;66.82;101985.69;5017539;28;102321;-54
2022/12/01 22:42:22;;;;;;;23.17;21.70;;;;;;;10.61;66.46;101970.44;5024327;27;103108;-54
2022/12/01 22:44:49;;;;;;;22.23;20.83;;;;;;;10.62;66.98;101968.53;5008272;27;103856;-54
2022/12/01 22:47:15;;;;;;;22.98;21.52;;;;;;;10.62;67.05;101974.81;5001395;28;102322;-54
2022/12/01 22:49:42;;;;;;;21.00;19.50;;;;;;;10.62;66.76;101977.53;4997161;28;102296;-54
2022/12/01 22:52:17;;;;;;;21.63;20.13;;;;;;;10.63;66.82;101971.00;4998882;28;103015;-54
2022/12/01 22:54:47;;;;;;;22.60;20.98;;;;;;;10.65;67.01;101963.44;5019584;27;104097;-54
2022/12/01 22:57:24;;;;;;;23.25;21.65;;;;;;;10.64;66.83;101961.78;5015643;27;102369;-54
2022/12/01 22:59:52;;;;;;;21.60;20.15;;;;;;;10.66;66.51;101965.06;5016790;27;102216;-54
2022/12/01 23:02:21;;;;;;;22.25;20.85;;;;;;;10.65;67.00;101966.16;5013103;28;102700;-54
2022/12/01 23:04:50;;;;;;;23.80;22.17;;;;;;;10.65;66.87;101959.88;4996108;28;107909;-54
2022/12/01 23:07:29;;;;;;;24.63;22.65;;;;;;;10.64;66.69;101955.50;4995086;28;102147;-54
2022/12/01 23:10:08;;;;;;;20.23;18.90;;;;;;;10.66;66.91;101958.81;5001237;27;102281;-54
2022/12/01 23:12:36;;;;;;;22.65;20.88;;;;;;;10.67;66.77;101961.28;5025160;27;102010;-55
2022/12/01 23:15:19;;;;;;;22.02;20.58;;;;;;;10.66;67.11;101961.53;5017862;28;103927;-54
2022/12/01 23:17:46;;;;;;;20.33;18.92;;;;;;;10.66;67.13;101953.38;5006117;28;102319;-54
2022/12/01 23:20:26;;;;;;;20.73;19.23;;;;;;;10.67;66.60;101955.00;4993629;28;102267;-54
2022/12/01 23:22:54;;;;;;;21.45;20.00;;;;;;;10.66;67.22;101951.47;5003318;28;103130;-54
